Time;durP1;ratioP1;P1;durP2;ratioP2;P2;SDS_P1;SDS_P2;PMS_P1;PMS_P2;Temp;Humidity;BMP_temperature;BMP_pressure;BME280_temperature;BME280_humidity;BME280_pressure;Samples;Min_cycle;Max_cycle;Signal;HPM_P1;HPM_P2
2022/03/10 00:02:15;;;;;;;61.55;19.00;;;;;;;29.17;58.46;100870.22;5079423;28;65768;-40
2022/03/10 00:04:47;;;;;;;52.57;20.13;;;;;;;29.09;59.79;100868.53;5068746;27;69724;-41
2022/03/10 00:07:18;;;;;;;48.33;20.27;;;;;;;29.06;59.62;100871.66;5062252;28;66279;-42
2022/03/10 00:09:49;;;;;;;42.35;18.13;;;;;;;29.10;59.47;100870.19;5066286;28;70204;-41
2022/03/10 00:12:20;;;;;;;43.00;18.08;;;;;;;29.12;59.18;100873.53;5065101;28;67718;-41
2022/03/10 00:14:52;;;;;;;41.70;16.47;;;;;;;29.16;59.20;100876.63;5065537;27;69954;-41
2022/03/10 00:17:23;;;;;;;39.65;16.70;;;;;;;29.21;58.73;100879.53;5069857;28;67485;-41
2022/03/10 00:19:54;;;;;;;44.67;16.08;;;;;;;29.25;59.29;100888.88;5063622;27;69457;-41
2022/03/10 00:22:25;;;;;;;53.95;17.67;;;;;;;29.24;58.48;100883.69;5070171;28;66694;-42
2022/03/10 00:24:57;;;;;;;38.78;16.80;;;;;;;29.28;58.95;100893.88;5068794;28;70206;-42
2022/03/10 00:27:28;;;;;;;23.17;13.27;;;;;;;29.36;57.24;100909.88;5068585;27;65769;-42
2022/03/10 00:29:59;;;;;;;34.97;13.35;;;;;;;29.44;56.46;100918.81;5067175;28;70064;-43
2022/03/10 00:32:30;;;;;;;21.88;12.85;;;;;;;29.43;56.64;100906.34;5061208;28;66181;-43
2022/03/10 00:35:01;;;;;;;35.45;13.43;;;;;;;29.56;56.52;100922.50;5067544;28;70121;-43
2022/03/10 00:37:31;;;;;;;22.90;12.60;;;;;;;29.57;56.25;100914.22;5059319;27;66394;-42
2022/03/10 00:40:01;;;;;;;36.70;13.98;;;;;;;29.65;55.65;100924.00;5065899;28;70659;-43
2022/03/10 00:42:40;;;;;;;26.38;12.70;;;;;;;29.12;56.19;100824.09;5063649;28;66869;-43
2022/03/10 00:45:12;;;;;;;30.27;13.73;;;;;;;29.78;55.69;100921.28;5065324;28;70618;-43
2022/03/10 00:47:43;;;;;;;25.08;12.13;;;;;;;29.72;55.99;100911.28;5059948;27;65962;-43
2022/03/10 00:50:14;;;;;;;29.63;13.95;;;;;;;29.88;55.50;100928.94;5059470;28;69228;-42
2022/03/10 00:52:47;;;;;;;24.40;12.25;;;;;;;29.92;55.87;100932.03;5066917;28;66313;-42
2022/03/10 00:55:20;;;;;;;23.58;12.13;;;;;;;29.61;55.83;100876.75;5072460;27;69168;-43
2022/03/10 00:57:51;;;;;;;30.15;12.70;;;;;;;29.94;55.57;100933.50;5059670;28;66462;-43
2022/03/10 01:00:24;;;;;;;26.50;12.70;;;;;;;30.00;55.62;100945.34;5062595;28;69409;-42
2022/03/10 01:02:58;;;;;;;16.90;11.13;;;;;;;30.05;55.26;100942.81;5068163;28;66156;-47
2022/03/10 01:05:29;;;;;;;13.30;10.65;;;;;;;29.99;55.72;100938.28;5068263;27;70295;-43
2022/03/10 01:08:00;;;;;;;21.42;11.68;;;;;;;30.11;55.35;100947.38;5070597;28;66726;-42
2022/03/10 01:10:32;;;;;;;17.65;10.82;;;;;;;30.12;55.74;100949.06;5073115;28;70357;-47
2022/03/10 01:13:03;;;;;;;22.40;12.07;;;;;;;30.11;54.99;100947.38;5073865;28;65688;-42
2022/03/10 01:15:34;;;;;;;19.02;10.73;;;;;;;30.18;55.09;100959.00;5066032;28;69550;-43
2022/03/10 01:18:07;;;;;;;23.50;10.77;;;;;;;30.19;55.09;100957.97;5073142;28;65907;-43
2022/03/10 01:20:39;;;;;;;17.90;10.82;;;;;;;30.23;55.00;100967.34;5064688;28;69472;-41
2022/03/10 01:23:10;;;;;;;14.85;10.43;;;;;;;30.24;55.36;100958.19;5082582;27;66099;-43
2022/03/10 01:25:41;;;;;;;18.40;11.38;;;;;;;30.23;55.11;100956.53;5063247;28;69675;-42
2022/03/10 01:28:12;;;;;;;17.55;10.57;;;;;;;30.31;54.79;100962.72;5054808;28;66235;-42
2022/03/10 01:30:43;;;;;;;11.40;10.20;;;;;;;30.34;54.74;100970.41;5067275;28;69266;-42
2022/03/10 01:33:13;;;;;;;17.45;10.27;;;;;;;30.35;55.36;100972.09;5065126;28;65508;-42
2022/03/10 01:35:44;;;;;;;17.98;10.25;;;;;;;30.37;55.40;100978.09;5061339;28;70210;-43
2022/03/10 01:38:15;;;;;;;11.23;10.10;;;;;;;30.38;55.37;100972.50;5074023;27;67043;-42
2022/03/10 01:40:46;;;;;;;15.13;10.43;;;;;;;30.42;55.40;100975.59;5068494;28;70266;-42
2022/03/10 01:43:18;;;;;;;13.82;10.20;;;;;;;30.43;55.33;100974.56;5050555;28;65403;-42
2022/03/10 01:45:49;;;;;;;13.88;9.38;;;;;;;30.44;54.91;100973.50;5069759;28;69844;-42
2022/03/10 01:48:20;;;;;;;13.32;9.27;;;;;;;30.36;55.10;100952.09;5072883;28;66145;-42
2022/03/10 01:50:55;;;;;;;13.48;9.77;;;;;;;30.51;54.80;100968.91;5069976;27;46258;-44
2022/03/10 01:53:26;;;;;;;17.53;10.70;;;;;;;30.51;55.07;100966.19;5059682;28;65317;-44
2022/03/10 01:55:57;;;;;;;12.50;10.13;;;;;;;30.56;55.19;100970.94;5059183;28;70092;-42
2022/03/10 01:58:28;;;;;;;10.15;9.02;;;;;;;30.49;54.84;100952.88;5067605;28;65715;-42
2022/03/10 02:01:00;;;;;;;11.18;9.95;;;;;;;30.61;54.89;100963.00;5064784;28;69513;-43
2022/03/10 02:03:32;;;;;;;10.10;9.23;;;;;;;30.63;55.12;100961.75;5051217;28;66098;-42
2022/03/10 02:06:03;;;;;;;11.85;9.98;;;;;;;30.61;54.56;100958.41;5066480;28;70016;-43
2022/03/10 02:11:23;;;;;;;12.68;10.45;;;;;;;30.65;55.00;100956.97;5065414;28;69633;-43
2022/03/10 02:13:54;;;;;;;19.63;10.55;;;;;;;30.64;55.04;100957.97;5070658;28;66297;-43
2022/03/10 02:19:15;;;;;;;12.40;11.07;;;;;;;30.73;54.71;100962.13;5066187;28;65452;-41
2022/03/10 02:21:46;;;;;;;12.98;10.68;;;;;;;30.76;54.36;100970.84;5076353;28;69562;-42
2022/03/10 02:24:17;;;;;;;21.50;10.90;;;;;;;30.78;55.01;100966.03;5072468;27;66521;-42
2022/03/10 02:26:47;;;;;;;14.27;10.65;;;;;;;30.80;54.42;100961.28;5067079;28;69413;-42
2022/03/10 02:29:18;;;;;;;17.38;11.43;;;;;;;30.80;54.95;100964.81;5063542;28;65780;-42
2022/03/10 02:31:49;;;;;;;12.88;10.43;;;;;;;30.82;54.32;100954.59;5068646;28;69943;-42
2022/03/10 02:34:22;;;;;;;12.13;10.80;;;;;;;30.54;54.83;100903.50;5068485;28;66161;-42
2022/03/10 02:36:52;;;;;;;16.88;10.98;;;;;;;30.90;54.51;100961.63;5059737;27;70006;-42
2022/03/10 02:39:24;;;;;;;13.60;10.97;;;;;;;30.90;54.84;100961.63;5070153;27;65553;-42
2022/03/10 02:41:54;;;;;;;15.10;11.05;;;;;;;30.94;54.20;100966.38;5060732;28;70096;-42
2022/03/10 02:44:25;;;;;;;14.50;11.13;;;;;;;30.96;54.73;100963.47;5062278;28;65667;-41
2022/03/10 02:46:56;;;;;;;12.07;10.88;;;;;;;30.96;54.11;100962.63;5062808;28;69175;-41
2022/03/10 02:49:27;;;;;;;19.13;11.90;;;;;;;31.00;54.27;100966.56;5065197;28;66524;-51
2022/03/10 02:51:58;;;;;;;13.57;10.77;;;;;;;31.03;54.72;100961.50;5067700;28;70145;-42
2022/03/10 02:54:44;;;;;;;15.70;11.27;;;;;;;31.07;54.48;100957.34;5079605;28;65705;-42
2022/03/10 02:57:15;;;;;;;14.27;11.32;;;;;;;30.93;54.19;100931.41;5066411;28;70131;-42
2022/03/10 02:59:46;;;;;;;18.35;11.93;;;;;;;31.09;54.12;100949.81;5060988;28;65084;-42
2022/03/10 03:02:17;;;;;;;12.90;10.98;;;;;;;31.12;54.22;100949.38;5065823;28;70113;-58
2022/03/10 03:04:47;;;;;;;14.73;10.63;;;;;;;31.14;54.30;100941.00;5073103;27;67045;-42
2022/03/10 03:07:18;;;;;;;16.48;12.45;;;;;;;31.14;54.24;100931.00;5061093;28;69009;-42
2022/03/10 03:09:49;;;;;;;12.63;11.43;;;;;;;31.21;54.20;100943.69;5058462;28;65410;-43
2022/03/10 03:12:20;;;;;;;20.80;11.20;;;;;;;31.21;54.40;100932.84;5068042;28;70007;-43
2022/03/10 03:14:51;;;;;;;13.32;11.45;;;;;;;31.21;54.08;100935.56;5063987;27;66430;-42
2022/03/10 03:17:21;;;;;;;16.92;12.45;;;;;;;31.28;54.12;100941.75;5069970;28;68719;-43
2022/03/10 03:19:53;;;;;;;16.83;12.20;;;;;;;31.28;53.89;100936.31;5067534;27;65362;-43
2022/03/10 03:22:24;;;;;;;20.27;11.43;;;;;;;31.28;54.38;100931.72;5066462;28;68963;-42
2022/03/10 03:24:55;;;;;;;16.58;12.43;;;;;;;31.32;54.27;100930.25;5060685;28;65466;-42
2022/03/10 03:27:26;;;;;;;13.25;11.45;;;;;;;31.30;54.15;100918.78;5077333;28;69619;-42
2022/03/10 03:29:57;;;;;;;18.00;12.52;;;;;;;31.37;53.53;100924.16;5067963;28;67005;-43
2022/03/10 03:32:28;;;;;;;16.08;12.35;;;;;;;31.38;53.77;100923.13;5061231;27;70300;-42
2022/03/10 03:34:58;;;;;;;16.35;11.68;;;;;;;31.41;53.57;100919.97;5074235;28;65962;-42
2022/03/10 03:37:29;;;;;;;16.38;11.95;;;;;;;31.44;53.63;100908.69;5074266;27;70038;-42
2022/03/10 03:40:00;;;;;;;15.60;12.95;;;;;;;31.47;53.96;100908.22;5080319;27;65471;-42
2022/03/10 03:42:34;;;;;;;15.90;12.05;;;;;;;31.46;53.77;100895.75;5060029;28;69400;-42
2022/03/10 03:45:06;;;;;;;17.15;12.20;;;;;;;31.53;53.30;100901.91;5068201;28;66134;-42
2022/03/10 03:47:37;;;;;;;17.88;12.63;;;;;;;31.53;54.00;100891.06;5061923;28;70182;-43
2022/03/10 03:50:08;;;;;;;14.93;12.57;;;;;;;31.56;53.86;100898.75;5075372;28;67033;-42
2022/03/10 03:52:39;;;;;;;20.00;12.65;;;;;;;31.59;53.63;100889.34;5065328;27;70427;-42
2022/03/10 03:55:13;;;;;;;16.05;12.07;;;;;;;31.57;53.54;100881.44;5077698;28;66611;-42
2022/03/10 03:57:44;;;;;;;15.20;12.53;;;;;;;31.55;53.87;100878.13;5063887;27;69197;-41
2022/03/10 04:00:19;;;;;;;24.48;13.98;;;;;;;31.69;53.28;100891.53;5059864;28;66116;-42
2022/03/10 04:02:49;;;;;;;14.57;11.90;;;;;;;31.71;53.67;100886.72;5063988;28;69622;-42
2022/03/10 04:05:20;;;;;;;22.02;12.93;;;;;;;31.64;53.88;100864.25;5075146;28;66168;-42
2022/03/10 04:07:51;;;;;;;17.08;13.15;;;;;;;31.76;53.79;100873.28;5071115;27;70599;-43
2022/03/10 04:10:21;;;;;;;17.48;12.63;;;;;;;31.69;53.92;100850.84;5073689;27;66455;-43
2022/03/10 04:12:52;;;;;;;26.70;14.50;;;;;;;31.78;53.99;100866.59;5063104;28;70482;-43
2022/03/10 04:15:23;;;;;;;20.40;14.07;;;;;;;31.82;54.29;100872.41;5062167;28;67049;-42
2022/03/10 04:17:54;;;;;;;16.65;14.40;;;;;;;31.82;53.80;100866.97;5068690;28;69499;-42
2022/03/10 04:20:25;;;;;;;23.35;15.70;;;;;;;31.85;53.75;100863.81;5059798;28;65652;-41
2022/03/10 04:22:59;;;;;;;21.67;16.27;;;;;;;31.84;53.56;100859.41;5073305;27;70435;-42
2022/03/10 04:25:30;;;;;;;25.63;17.23;;;;;;;31.89;53.35;100869.59;5068585;28;66529;-42
2022/03/10 04:28:01;;;;;;;28.65;17.67;;;;;;;31.92;53.71;100861.03;5062168;28;69319;-43
2022/03/10 04:30:37;;;;;;;26.83;16.70;;;;;;;31.93;53.49;100863.53;5069815;27;66602;-43
2022/03/10 04:33:07;;;;;;;26.13;16.92;;;;;;;31.95;53.24;100855.16;5069139;27;69690;-43
2022/03/10 04:35:56;;;;;;;23.90;16.40;;;;;;;31.96;52.99;100856.81;5060044;28;65468;-43
2022/03/10 04:38:37;;;;;;;31.02;19.92;;;;;;;31.96;52.75;100844.09;5059732;27;71192;-43
2022/03/10 04:41:08;;;;;;;26.85;17.80;;;;;;;31.97;53.10;100850.34;5078027;28;66921;-43
2022/03/10 04:43:39;;;;;;;34.97;17.70;;;;;;;32.00;52.73;100847.97;5063033;28;70067;-50
2022/03/10 04:46:11;;;;;;;28.98;18.27;;;;;;;32.00;52.75;100847.16;5060131;28;66742;-42
2022/03/10 04:48:42;;;;;;;29.73;17.58;;;;;;;32.00;52.61;100845.28;5075911;27;70735;-43
2022/03/10 04:51:13;;;;;;;26.97;17.20;;;;;;;31.97;52.69;100834.88;5070515;27;66124;-43
2022/03/10 04:53:44;;;;;;;29.30;18.77;;;;;;;31.94;52.39;100827.19;5054753;28;69011;-42
2022/03/10 04:56:16;;;;;;;25.10;17.73;;;;;;;31.90;52.41;100820.56;5067860;28;66420;-42
2022/03/10 04:58:47;;;;;;;30.88;18.73;;;;;;;32.00;52.89;100837.13;5068018;28;70075;-43
2022/03/10 05:01:18;;;;;;;25.38;18.33;;;;;;;31.96;52.69;100818.84;5068533;28;66805;-44
2022/03/10 05:03:50;;;;;;;32.60;18.77;;;;;;;31.99;52.59;100824.63;5076582;28;69169;-42
2022/03/10 05:06:22;;;;;;;28.02;18.30;;;;;;;32.00;53.10;100818.13;5069000;28;66424;-42
2022/03/10 05:08:52;;;;;;;;;;;;;;;31.69;53.69;100823.75;5067890;27;69963;-42
2022/03/10 05:11:23;;;;;;;32.50;18.70;;;;;;;31.97;53.04;100805.03;5074187;28;66309;-42
2022/03/10 05:13:57;;;;;;;35.90;19.50;;;;;;;32.00;52.54;100803.75;5071339;28;69324;-43
2022/03/10 05:16:27;;;;;;;31.83;18.25;;;;;;;31.93;52.84;100786.72;5073491;28;66317;-43
2022/03/10 05:18:58;;;;;;;25.13;17.65;;;;;;;32.02;53.12;100794.31;5069705;28;70043;-42
2022/03/10 05:21:29;;;;;;;27.70;19.63;;;;;;;32.05;52.93;100795.75;5066804;27;66071;-43
2022/03/10 05:23:59;;;;;;;21.00;17.05;;;;;;;32.05;52.82;100776.75;5066761;28;70202;-43
2022/03/10 05:26:30;;;;;;;29.75;18.73;;;;;;;31.81;52.60;100737.81;5067310;28;66420;-42
2022/03/10 05:29:01;;;;;;;24.75;17.33;;;;;;;32.07;53.05;100766.50;5069665;28;69836;-43
2022/03/10 05:31:33;;;;;;;30.20;18.23;;;;;;;32.07;53.00;100765.66;5068423;28;66243;-44
2022/03/10 05:34:03;;;;;;;26.75;18.00;;;;;;;32.08;52.85;100770.03;5067129;28;70114;-43
2022/03/10 05:36:34;;;;;;;27.52;17.85;;;;;;;32.08;53.02;100761.91;5065461;28;65327;-42
2022/03/10 05:39:05;;;;;;;28.63;17.70;;;;;;;31.99;52.98;100748.66;5072382;27;69438;-42
2022/03/10 05:41:36;;;;;;;32.88;19.00;;;;;;;32.06;53.13;100753.97;5071632;28;65547;-42
2022/03/10 05:44:06;;;;;;;24.75;17.58;;;;;;;32.07;52.62;100760.22;5068232;28;70602;-42
2022/03/10 05:46:37;;;;;;;29.50;17.95;;;;;;;32.09;52.87;100763.53;5071136;28;66395;-42
2022/03/10 05:49:08;;;;;;;24.70;17.50;;;;;;;32.03;53.00;100747.13;5068510;27;70086;-42
2022/03/10 05:51:39;;;;;;;23.92;18.17;;;;;;;32.10;52.68;100759.78;5059463;28;66372;-42
2022/03/10 05:54:09;;;;;;;23.40;17.88;;;;;;;32.10;52.95;100762.50;5059773;28;70308;-42
2022/03/10 05:56:40;;;;;;;30.40;18.92;;;;;;;32.08;52.64;100751.06;5072213;28;65541;-41
2022/03/10 05:59:11;;;;;;;28.08;18.73;;;;;;;32.11;52.74;100756.00;5068503;28;70580;-42
2022/03/10 06:01:42;;;;;;;28.13;18.33;;;;;;;32.08;52.69;100756.47;5067240;28;66031;-43
2022/03/10 06:04:12;;;;;;;53.92;19.30;;;;;;;32.10;52.99;100746.22;5057915;28;69931;-43
2022/03/10 06:06:46;;;;;;;38.42;18.25;;;;;;;32.10;52.92;100748.94;5060722;28;65662;-42
2022/03/10 06:09:17;;;;;;;23.02;18.25;;;;;;;32.11;52.83;100745.97;5067939;28;70173;-43
2022/03/10 06:11:47;;;;;;;26.58;17.45;;;;;;;32.08;52.87;100741.00;5064606;28;67324;-42
2022/03/10 06:14:18;;;;;;;22.98;17.88;;;;;;;32.11;52.78;100745.97;5064705;28;69729;-42
2022/03/10 06:16:49;;;;;;;36.92;20.00;;;;;;;32.12;53.00;100741.38;5061892;28;66392;-42
2022/03/10 06:19:20;;;;;;;27.85;17.42;;;;;;;32.03;53.26;100722.72;5068077;27;71349;-43
2022/03/10 06:21:51;;;;;;;26.20;18.05;;;;;;;32.01;53.20;100714.00;5080398;28;66706;-43
2022/03/10 06:24:22;;;;;;;31.00;18.23;;;;;;;32.15;53.06;100735.47;5062476;28;69587;-42
2022/03/10 06:26:53;;;;;;;19.83;17.20;;;;;;;32.12;53.19;100730.53;5089111;27;65518;-43
2022/03/10 06:29:24;;;;;;;27.75;18.83;;;;;;;32.11;52.73;100716.13;5072027;28;70283;-43
2022/03/10 06:31:55;;;;;;;31.73;18.53;;;;;;;32.08;53.24;100713.06;5073036;27;65756;-44
2022/03/10 06:34:27;;;;;;;23.83;18.13;;;;;;;32.13;53.14;100718.63;5074307;28;70597;-42
2022/03/10 06:36:58;;;;;;;21.90;18.15;;;;;;;32.13;53.47;100715.91;5076010;27;65945;-43
2022/03/10 06:39:29;;;;;;;24.90;18.33;;;;;;;32.13;53.12;100705.06;5055734;28;70017;-42
2022/03/10 06:42:02;;;;;;;21.00;17.73;;;;;;;31.96;52.92;100681.31;5074630;27;66163;-43
2022/03/10 06:44:33;;;;;;;26.52;18.63;;;;;;;31.93;52.93;100673.63;5074885;28;69967;-43
2022/03/10 06:47:09;;;;;;;25.23;18.67;;;;;;;32.17;53.01;100706.22;5067759;27;66515;-42
2022/03/10 06:49:40;;;;;;;27.27;17.50;;;;;;;32.16;53.12;100699.16;5062240;28;70243;-42
2022/03/10 06:52:11;;;;;;;30.80;19.23;;;;;;;32.13;53.21;100692.31;5065621;28;66047;-43
2022/03/10 06:54:42;;;;;;;28.08;17.90;;;;;;;32.17;52.87;100692.66;5072451;28;69559;-42
2022/03/10 06:57:14;;;;;;;23.42;18.10;;;;;;;32.14;53.23;100679.56;5076384;28;65880;-42
2022/03/10 06:59:45;;;;;;;27.08;18.77;;;;;;;32.19;53.39;100683.22;5064661;28;70552;-42
2022/03/10 07:02:19;;;;;;;26.17;18.60;;;;;;;32.17;52.81;100673.66;5076612;28;65547;-43
2022/03/10 07:04:50;;;;;;;26.52;17.90;;;;;;;32.03;52.97;100663.03;5065093;28;70150;-43
2022/03/10 07:07:22;;;;;;;25.60;18.27;;;;;;;32.21;53.20;100686.53;5071812;28;66703;-45
2022/03/10 07:09:53;;;;;;;24.77;17.80;;;;;;;32.23;53.23;100681.72;5066632;28;70558;-43
2022/03/10 07:12:26;;;;;;;35.67;19.08;;;;;;;32.19;53.19;100671.56;5067990;28;66383;-42
2022/03/10 07:14:57;;;;;;;32.53;19.50;;;;;;;32.27;52.89;100676.63;5069657;28;70150;-42
2022/03/10 07:17:27;;;;;;;31.15;19.30;;;;;;;32.26;53.15;100675.81;5073938;27;65702;-42
2022/03/10 07:19:58;;;;;;;27.95;18.98;;;;;;;32.28;52.94;100670.94;5070353;28;68760;-42
2022/03/10 07:22:29;;;;;;;28.77;19.58;;;;;;;32.28;53.22;100664.69;5069480;28;66396;-44
2022/03/10 07:25:00;;;;;;;28.80;19.27;;;;;;;32.28;53.07;100659.28;5069742;27;70056;-42
2022/03/10 07:27:30;;;;;;;37.20;24.00;;;;;;;32.29;52.79;100671.81;5065856;28;66282;-42
2022/03/10 07:30:01;;;;;;;36.03;22.02;;;;;;;32.25;52.84;100659.75;5074628;28;69411;-43
2022/03/10 07:32:33;;;;;;;39.93;22.93;;;;;;;32.30;53.02;100662.59;5075425;28;65380;-43
2022/03/10 07:35:05;;;;;;;37.00;22.70;;;;;;;32.31;52.91;100661.50;5068703;28;69393;-42
2022/03/10 07:37:36;;;;;;;40.25;23.80;;;;;;;32.28;52.93;100659.28;5064103;28;66603;-44
2022/03/10 07:40:07;;;;;;;40.45;25.00;;;;;;;32.30;52.84;100659.88;5061772;28;69845;-42
2022/03/10 07:42:38;;;;;;;39.97;22.13;;;;;;;32.30;53.05;100654.44;5062830;28;65404;-43
2022/03/10 07:45:13;;;;;;;42.15;23.75;;;;;;;32.29;52.96;100650.09;5067891;28;69306;-42
2022/03/10 07:47:55;;;;;;;39.35;24.58;;;;;;;32.27;53.00;100641.34;5073160;28;65343;-42
2022/03/10 07:50:34;;;;;;;41.33;24.90;;;;;;;32.22;52.89;100630.38;5060531;28;70528;-42
2022/03/10 07:53:09;;;;;;;44.50;23.67;;;;;;;32.27;53.46;100646.78;5061625;28;66064;-42
2022/03/10 07:55:44;;;;;;;45.22;25.75;;;;;;;32.30;53.26;100640.88;5061219;28;69608;-42
2022/03/10 07:58:22;;;;;;;40.42;25.67;;;;;;;32.30;53.17;100651.72;5063916;27;66109;-42
2022/03/10 08:01:02;;;;;;;37.55;25.40;;;;;;;32.27;53.48;100635.91;5067063;28;70388;-43
2022/03/10 08:03:38;;;;;;;35.05;25.58;;;;;;;32.29;53.23;100633.81;5065788;28;65730;-42
2022/03/10 08:06:29;;;;;;;;;;;;;;;;;;;;;
2022/03/10 08:09:07;;;;;;;40.25;26.17;;;;;;;32.03;53.68;100594.38;5060989;28;65542;-42
2022/03/10 08:11:45;;;;;;;41.63;27.65;;;;;;;32.25;53.01;100616.31;5068852;28;70446;-42
2022/03/10 08:14:20;;;;;;;45.72;27.48;;;;;;;32.32;52.94;100633.34;5067136;28;66079;-43
2022/03/10 08:16:54;;;;;;;40.97;26.73;;;;;;;32.34;53.00;100631.19;5067151;28;69184;-42
2022/03/10 08:19:25;;;;;;;38.15;26.77;;;;;;;32.35;53.13;100630.13;5059288;28;66331;-43
2022/03/10 08:21:56;;;;;;;36.80;27.50;;;;;;;32.36;53.18;100623.63;5068503;28;70073;-42
2022/03/10 08:24:28;;;;;;;37.17;26.30;;;;;;;32.37;53.31;100629.88;5059399;28;65797;-42
2022/03/10 08:26:59;;;;;;;41.95;26.85;;;;;;;32.31;53.04;100623.50;5054168;28;69972;-43
2022/03/10 08:29:30;;;;;;;47.78;26.80;;;;;;;32.37;53.23;100635.31;5059054;28;66348;-44
2022/03/10 08:32:01;;;;;;;36.10;26.23;;;;;;;32.37;53.25;100635.31;5074108;28;69676;-43
2022/03/10 08:34:31;;;;;;;38.13;25.38;;;;;;;32.30;53.09;100635.44;5058099;28;66011;-43
2022/03/10 08:37:03;;;;;;;;;;;;;;;32.10;54.02;100648.53;5066293;27;69036;-42
2022/03/10 08:39:34;;;;;;;37.55;25.38;;;;;;;32.36;53.19;100648.06;5058627;28;65894;-42
2022/03/10 08:42:06;;;;;;;42.65;25.23;;;;;;;32.35;53.14;100638.28;5077916;28;69774;-42
2022/03/10 08:44:37;;;;;;;37.50;24.10;;;;;;;32.37;53.18;100643.47;5073599;28;65407;-42
2022/03/10 08:47:08;;;;;;;35.63;23.03;;;;;;;32.36;52.85;100644.53;5078915;28;70513;-42
2022/03/10 08:49:38;;;;;;;39.55;24.13;;;;;;;32.39;52.96;100653.03;5071292;28;66772;-42
2022/03/10 08:52:11;;;;;;;34.25;22.15;;;;;;;32.39;52.90;100644.88;5065960;28;70215;-42
2022/03/10 08:54:44;;;;;;;33.78;22.92;;;;;;;32.32;52.98;100632.47;5071295;28;66080;-42
2022/03/10 08:57:15;;;;;;;32.78;21.80;;;;;;;32.38;53.15;100648.66;5067402;28;69674;-42
2022/03/10 08:59:46;;;;;;;37.40;21.00;;;;;;;32.39;53.02;100644.88;5058145;28;66136;-42
2022/03/10 09:02:17;;;;;;;30.90;19.77;;;;;;;32.39;52.83;100650.31;5059752;28;71176;-43
2022/03/10 09:04:48;;;;;;;30.30;19.95;;;;;;;32.39;53.05;100654.91;5058708;28;65651;-43
2022/03/10 09:07:19;;;;;;;32.33;20.52;;;;;;;32.35;52.47;100649.13;5060652;28;70215;-43
2022/03/10 09:09:50;;;;;;;37.00;19.55;;;;;;;32.40;52.46;100662.84;5060162;28;66411;-42
2022/03/10 09:12:21;;;;;;;31.92;18.55;;;;;;;32.41;52.50;100659.06;5042524;28;70100;-42
2022/03/10 09:14:52;;;;;;;27.77;17.83;;;;;;;32.37;52.60;100647.00;5071216;28;65545;-43
2022/03/10 09:17:23;;;;;;;29.88;18.73;;;;;;;32.39;53.02;100661.16;5066907;27;70234;-43
2022/03/10 09:19:54;;;;;;;29.27;17.98;;;;;;;32.37;52.76;100657.03;5062498;28;66774;-42
2022/03/10 09:22:25;;;;;;;24.63;17.05;;;;;;;32.41;52.40;100661.75;5059389;28;70343;-43
2022/03/10 09:24:56;;;;;;;31.05;17.50;;;;;;;32.40;52.64;100656.56;5066864;28;66723;-43
2022/03/10 09:27:27;;;;;;;27.70;16.98;;;;;;;32.40;52.73;100657.41;5061872;28;70169;-43
2022/03/10 09:29:58;;;;;;;23.05;16.58;;;;;;;32.40;52.37;100651.97;5071003;28;66958;-42
2022/03/10 09:32:46;;;;;;;28.02;17.10;;;;;;;32.35;52.70;100643.72;5080758;27;68943;-42
2022/03/10 09:35:17;;;;;;;25.73;16.55;;;;;;;32.42;52.68;100660.69;5065792;27;66610;-43
2022/03/10 09:37:48;;;;;;;35.00;17.38;;;;;;;32.42;52.53;100665.31;5061121;27;70046;-43
2022/03/10 09:40:20;;;;;;;21.70;16.33;;;;;;;32.42;52.42;100676.97;5071414;28;64625;-42
2022/03/10 09:42:51;;;;;;;28.73;16.20;;;;;;;32.31;52.34;100658.81;5062230;27;70443;-43
2022/03/10 09:45:23;;;;;;;26.95;15.18;;;;;;;32.37;52.38;100665.19;5066998;28;67033;-47
2022/03/10 09:47:54;;;;;;;22.38;15.35;;;;;;;32.41;52.40;100675.34;5069615;28;69818;-42
2022/03/10 09:50:25;;;;;;;24.85;14.82;;;;;;;32.42;52.35;100676.97;5066250;27;65934;-42
2022/03/10 09:52:56;;;;;;;23.25;14.98;;;;;;;32.42;52.20;100682.41;5073446;28;70378;-43
2022/03/10 09:55:27;;;;;;;23.60;13.97;;;;;;;32.42;52.55;100687.84;5060002;28;66002;-42
2022/03/10 09:58:01;;;;;;;23.63;14.43;;;;;;;32.13;52.37;100646.19;5058453;28;70665;-44
2022/03/10 10:00:32;;;;;;;16.17;13.63;;;;;;;32.43;52.51;100689.50;5071028;28;66565;-42
2022/03/10 10:03:04;;;;;;;21.25;14.82;;;;;;;32.40;52.19;100700.84;5066454;28;69063;-42
2022/03/10 10:05:39;;;;;;;22.73;16.45;;;;;;;32.37;53.41;100693.13;5068126;28;66548;-41
2022/03/10 10:08:18;;;;;;;30.38;14.98;;;;;;;32.33;53.20;100691.97;5067796;28;70199;-41
2022/03/10 10:10:51;;;;;;;19.92;12.95;;;;;;;32.22;52.27;100681.94;5070020;28;65224;-42
2022/03/10 10:13:39;;;;;;;31.23;12.88;;;;;;;32.13;51.84;100694.19;5067819;28;70203;-42
2022/03/10 10:16:14;;;;;;;22.95;11.32;;;;;;;31.92;51.86;100650.25;5063471;28;66019;-42
2022/03/10 10:18:53;;;;;;;32.60;12.95;;;;;;;32.09;52.02;100682.16;5072728;28;69978;-41
2022/03/10 10:21:26;;;;;;;25.42;11.90;;;;;;;32.01;51.96;100673.31;5069839;28;66360;-42
2022/03/10 10:23:57;;;;;;;32.17;15.63;;;;;;;31.99;51.82;100683.56;5070976;28;70329;-40
2022/03/10 10:26:32;;;;;;;26.50;18.67;;;;;;;31.65;52.11;100644.41;5068654;27;65196;-43
2022/03/10 10:29:04;;;;;;;29.27;15.70;;;;;;;31.89;52.06;100694.09;5070880;28;70145;-44
2022/03/10 10:31:38;;;;;;;37.03;24.58;;;;;;;31.88;52.18;100692.47;5058657;28;65920;-41
2022/03/10 10:34:31;;;;;;;41.83;26.38;;;;;;;31.82;52.13;100696.09;5067186;28;69202;-41
2022/03/10 10:37:02;;;;;;;35.92;18.90;;;;;;;31.81;52.01;100689.00;5065940;27;65518;-43
2022/03/10 10:39:32;;;;;;;34.85;16.77;;;;;;;31.81;52.37;100680.88;5070532;28;69573;-42
2022/03/10 10:42:15;;;;;;;23.13;13.60;;;;;;;31.72;52.91;100685.78;5055944;28;65709;-41
2022/03/10 10:44:46;;;;;;;34.30;15.05;;;;;;;31.72;52.43;100687.69;5067417;28;70833;-43
2022/03/10 10:47:17;;;;;;;28.77;13.07;;;;;;;31.67;51.96;100684.84;5065694;28;66107;-45
2022/03/10 10:50:04;;;;;;;22.67;12.52;;;;;;;31.60;51.93;100695.78;5075068;28;69828;-46
2022/03/10 10:52:39;;;;;;;23.20;11.68;;;;;;;31.44;51.93;100669.31;5070320;28;66094;-46
2022/03/10 10:55:13;;;;;;;23.20;11.18;;;;;;;31.42;52.42;100672.22;5072224;28;69243;-44
2022/03/10 10:57:44;;;;;;;21.77;11.07;;;;;;;31.52;52.90;100696.94;5070003;28;65934;-44
2022/03/10 11:00:17;;;;;;;26.42;10.82;;;;;;;31.51;53.59;100698.00;5070565;28;69385;-45
2022/03/10 11:02:49;;;;;;;20.88;11.60;;;;;;;31.48;53.59;100692.19;5068581;28;66121;-45
2022/03/10 11:05:21;;;;;;;25.88;11.10;;;;;;;31.46;53.58;100695.13;5069014;28;70294;-45
2022/03/10 11:07:51;;;;;;;22.13;10.85;;;;;;;31.36;53.88;100681.28;5072713;27;66918;-45
2022/03/10 11:10:22;;;;;;;28.27;11.13;;;;;;;31.40;53.71;100712.31;5060696;28;70125;-49
2022/03/10 11:12:53;;;;;;;30.40;11.48;;;;;;;31.36;53.09;100705.69;5074169;28;66370;-44
2022/03/10 11:15:24;;;;;;;20.73;10.55;;;;;;;31.34;53.58;100708.59;5061337;28;69050;-45
2022/03/10 11:17:55;;;;;;;15.75;8.98;;;;;;;31.33;53.46;100703.41;5078315;28;65931;-45
2022/03/10 11:20:29;;;;;;;20.67;9.45;;;;;;;31.28;53.68;100709.50;5069590;28;70093;-44
2022/03/10 11:23:14;;;;;;;16.33;10.23;;;;;;;31.27;53.46;100707.03;5073070;28;66553;-43
2022/03/10 11:26:01;;;;;;;21.77;11.15;;;;;;;31.21;53.61;100714.19;5064263;28;70060;-45
2022/03/10 11:28:34;;;;;;;24.92;11.77;;;;;;;30.94;54.17;100676.53;5065032;28;66313;-45
2022/03/10 11:31:09;;;;;;;21.70;11.65;;;;;;;31.19;53.74;100720.88;5060902;28;69376;-45
2022/03/10 11:33:40;;;;;;;35.00;12.05;;;;;;;31.13;53.83;100715.31;5072197;28;66417;-44
2022/03/10 11:36:33;;;;;;;39.47;13.95;;;;;;;31.07;54.30;100724.34;5074331;27;70788;-44
2022/03/10 11:39:17;;;;;;;32.60;12.88;;;;;;;31.14;55.23;100730.50;5070915;27;66131;-44
2022/03/10 11:41:53;;;;;;;52.40;18.10;;;;;;;31.15;54.80;100737.59;5069083;28;70630;-43